Celebrity Mercury — 9HJG9 — position and weather

sailwx.info

Track history (hours):
 
Tides and Currents Weather Stations Pressure Air Temp Water Temp Dewpoint Dewpoint Depression Visibility Wind Speed Wind Dir Waves Ship Positions

Celebrity Mercury

Last reported at 2019-Sep-15 20:00 UTC. Time now 2019-Sep-17 08:29 UTC.
Position N 36°18' E 013°54'.

Length 264 m; draft 8.5 m.

Type: Passenger vessel. MMSI: 249053000.

Wind from 290 at 5 knots

Barometer 1022.0 mb
Air temperature 25.0 ° C
Visibility: greater than 5.4 NM
Water temperature 30.0 ° C

Date/timePositionNaut miles runAvg speedWind from/ knotsBaromVisibWave heightAir tempDewpointWater temp
2019-Sep-15 20:00N 36°18' E 013°54'14011.7 290 / 51022.0 5.4 25.0 30.0
2019-Sep-15 08:00N 38°00' E 011°54'12613.6 120 / 111024.010.8 26.0 29.0
2019-Sep-14 22:44N 39°46' E 013°20'413.9
2019-Sep-14 22:29N 39°49' E 013°23'713.9
2019-Sep-14 22:01N 39°55' E 013°28'713.8
2019-Sep-14 21:30N 40°00' E 013°33'713.8
2019-Sep-14 21:00N 40°06' E 013°38'2103.8
2019-Sep-14 21:00N 40°06' E 013°36'816.3 350 / 111024.0 5.4 25.0 29.0
2019-Sep-14 20:30N 40°12' E 013°43'713.7
2019-Sep-14 20:01N 40°17' E 013°49'813.6
2019-Sep-14 19:26N 40°23' E 013°55'613.6
2019-Sep-14 19:00N 40°28' E 013°59'713.7
2019-Sep-14 18:31N 40°34' E 014°04'713.8
2019-Sep-14 18:00N 40°39' E 014°09'713.6
2019-Sep-14 17:30N 40°45' E 014°15'510.7
2019-Sep-14 17:00N 40°50' E 014°17'1 1.4
2019-Sep-14 16:30N 40°50' E 014°16'0 0.0
2019-Sep-14 16:00N 40°50' E 014°16'0 0.0
2019-Sep-14 15:30N 40°50' E 014°16'0 0.0
2019-Sep-14 15:00N 40°50' E 014°16'0 0.0
2019-Sep-14 14:30N 40°50' E 014°16'0 0.0
2019-Sep-14 13:54N 40°50' E 014°16'0 0.0
2019-Sep-14 13:24N 40°50' E 014°16'0 0.1
2019-Sep-14 13:00N 40°50' E 014°16'0 0.0
2019-Sep-14 12:30N 40°50' E 014°16'0 0.0
2019-Sep-14 12:00N 40°50' E 014°16'0 0.0
2019-Sep-14 11:30N 40°50' E 014°16'0 0.0
2019-Sep-14 11:00N 40°50' E 014°16'0 0.0
2019-Sep-14 10:30N 40°50' E 014°16'0 0.0
2019-Sep-14 10:00N 40°50' E 014°16'0 0.0
2019-Sep-14 09:24N 40°50' E 014°16'0 0.0
2019-Sep-14 09:00N 40°50' E 014°16'0 0.0
2019-Sep-14 08:30N 40°50' E 014°16'0 0.0
2019-Sep-14 08:00N 40°50' E 014°16'0 0.0
2019-Sep-14 07:30N 40°50' E 014°16'0 0.0
2019-Sep-14 07:00N 40°50' E 014°16'0 0.0
2019-Sep-14 06:30N 40°50' E 014°16'0 0.0
2019-Sep-14 06:00N 40°50' E 014°16'0 0.4
2019-Sep-14 05:30N 40°50' E 014°16'2 4.1
2019-Sep-14 05:00N 40°48' E 014°17'612.1
2019-Sep-14 04:31N 40°44' E 014°12'612.2
2019-Sep-14 04:01N 40°39' E 014°07'611.9
2019-Sep-14 03:31N 40°38' E 013°59'612.7
2019-Sep-14 03:01N 40°38' E 013°51'713.1
2019-Sep-14 02:30N 40°39' E 013°42'713.2
2019-Sep-14 02:01N 40°40' E 013°34'713.1
2019-Sep-14 01:30N 40°42' E 013°26'713.1
2019-Sep-14 01:01N 40°44' E 013°17'713.4
2019-Sep-14 00:31N 40°46' E 013°09'914.7
2019-Sep-13 23:53N 40°48' E 012°57'718.9
2019-Sep-13 23:30N 40°50' E 012°48'1318.3
2019-Sep-13 22:49N 40°58' E 012°35'618.9
2019-Sep-13 22:30N 41°03' E 012°30'918.8
2019-Sep-13 22:00N 41°09' E 012°21'1219.0
2019-Sep-13 21:22N 41°20' E 012°13'1118.7
2019-Sep-13 20:46N 41°28' E 012°04'718.8
2019-Sep-13 20:25N 41°33' E 011°58'818.9
2019-Sep-13 20:00N 41°40' E 011°52'1418.5
2019-Sep-13 19:16N 41°51' E 011°41'44 2.3
2019-Sep-13 00:00N 41°46' E 010°42'2118.6
2019-Sep-12 22:54N 41°39' E 010°16'718.4
2019-Sep-12 22:30N 41°36' E 010°07'918.4
2019-Sep-12 22:00N 41°32' E 009°56'918.6
2019-Sep-12 21:30N 41°29' E 009°45'1018.4
2019-Sep-12 20:58N 41°25' E 009°32'1117.7
2019-Sep-12 20:20N 41°20' E 009°19'1116.5
2019-Sep-12 19:40N 41°17' E 009°05'317.4
2019-Sep-12 19:30N 41°17' E 009°01'1117.7
2019-Sep-12 18:53N 41°10' E 008°50'718.2
2019-Sep-12 18:30N 41°06' E 008°43'918.1
2019-Sep-12 18:00N 40°60' E 008°34'917.6
2019-Sep-12 17:30N 40°54' E 008°26'4 7.6
2019-Sep-12 17:01N 40°51' E 008°23'0 0.0
2019-Sep-12 11:52N 40°51' E 008°23'0 0.0
2019-Sep-12 11:28N 40°51' E 008°23'0 0.0
2019-Sep-12 10:58N 40°51' E 008°23'0 0.0
2019-Sep-12 10:28N 40°51' E 008°23'0 0.0
2019-Sep-12 09:58N 40°51' E 008°23'0 0.0
2019-Sep-12 08:22N 40°51' E 008°23'0 0.0
2019-Sep-12 07:52N 40°51' E 008°23'0 0.0
2019-Sep-12 07:28N 40°51' E 008°23'0 0.0
2019-Sep-12 06:55N 40°51' E 008°23'0 0.0
2019-Sep-12 06:28N 40°51' E 008°23'0 0.0
2019-Sep-12 05:58N 40°51' E 008°23'0 0.3
2019-Sep-12 05:30N 40°51' E 008°23'9 6.4
2019-Sep-12 04:06N 40°60' E 008°25'1 8.4
2019-Sep-12 04:00N 41°00' E 008°25'4 8.3
2019-Sep-12 03:30N 41°04' E 008°26'4 8.2
2019-Sep-12 03:00N 41°09' E 008°26'4 8.3
2019-Sep-12 02:30N 41°13' E 008°26'4 8.2
2019-Sep-12 02:00N 41°17' E 008°25'7 8.2
2019-Sep-12 01:13N 41°23' E 008°24'2 8.2
2019-Sep-12 00:59N 41°25' E 008°23'4 8.3
2019-Sep-12 00:30N 41°29' E 008°23'5 8.2
2019-Sep-11 23:56N 41°34' E 008°22'4 8.3
2019-Sep-11 23:30N 41°37' E 008°21'4 8.2
2019-Sep-11 23:00N 41°41' E 008°21'4 7.5
2019-Sep-11 22:30N 41°44' E 008°23'4 8.2
2019-Sep-11 22:00N 41°46' E 008°28'4 8.2
2019-Sep-11 21:30N 41°49' E 008°33'4 8.1
2019-Sep-11 21:00N 41°50' E 008°38'12 0.7
2019-Sep-11 03:44N 41°38' E 008°39'513.6
2019-Sep-11 03:24N 41°34' E 008°42'25012.9
2019-Sep-10 08:00N 38°00' E 011°30'197 5.4 140 / 91014.010.8 25.0 29.0
2019-Sep-08 19:15N 37°00' E 015°27'617.0
2019-Sep-08 18:55N 37°06' E 015°25'1216.9
2019-Sep-08 18:13N 37°16' E 015°19'10 0.7
2019-Sep-08 04:13N 37°27' E 015°19'313.2
2019-Sep-08 04:00N 37°26' E 015°22'713.6
2019-Sep-08 03:31N 37°25' E 015°30'713.1
2019-Sep-08 03:00N 37°23' E 015°38'612.8
2019-Sep-08 02:31N 37°22' E 015°46'612.7
2019-Sep-08 02:01N 37°21' E 015°54'612.6
2019-Sep-08 01:30N 37°20' E 016°02'1412.7
2019-Sep-08 00:24N 37°17' E 016°19'712.8
2019-Sep-07 23:52N 37°16' E 016°27'34012.3
2019-Sep-06 20:15N 37°07' E 023°35'312.5
2019-Sep-06 20:00N 37°10' E 023°35'5336.5
2019-Sep-06 20:00N 37°06' E 023°30'1122.8 040 / 101014.010.8 26.0 29.0
2019-Sep-06 19:30N 37°16' E 023°37'612.4
2019-Sep-06 19:01N 37°21' E 023°40'713.1
2019-Sep-06 18:30N 37°28' E 023°41'713.3
2019-Sep-06 18:00N 37°34' E 023°42'713.1
2019-Sep-06 17:30N 37°41' E 023°41'713.2
2019-Sep-06 17:00N 37°47' E 023°38'611.7
2019-Sep-06 16:31N 37°53' E 023°37'4 7.2
2019-Sep-06 16:01N 37°56' E 023°37'0 0.1
2019-Sep-06 15:30N 37°56' E 023°37'0 0.0
2019-Sep-06 15:00N 37°56' E 023°37'0 0.0
2019-Sep-06 14:30N 37°56' E 023°37'0 0.0
2019-Sep-06 13:59N 37°56' E 023°37'0 0.0
2019-Sep-06 13:29N 37°56' E 023°37'0 0.0
2019-Sep-06 13:00N 37°56' E 023°37'0 0.0
2019-Sep-06 12:30N 37°56' E 023°37'0 0.0
2019-Sep-06 11:54N 37°56' E 023°37'0 0.0
2019-Sep-06 11:30N 37°56' E 023°37'0 0.0
2019-Sep-06 11:00N 37°56' E 023°37'0 0.0
2019-Sep-06 10:30N 37°56' E 023°37'0 0.0
2019-Sep-06 10:00N 37°56' E 023°37'0 0.0
2019-Sep-06 09:30N 37°56' E 023°37'0 0.0
2019-Sep-06 09:00N 37°56' E 023°37'0 0.0
2019-Sep-06 08:29N 37°56' E 023°37'0 0.0
2019-Sep-06 07:59N 37°56' E 023°37'0 0.0
2019-Sep-06 07:29N 37°56' E 023°37'0 0.0
2019-Sep-06 06:59N 37°56' E 023°37'0 0.0
2019-Sep-06 06:30N 37°56' E 023°37'0 0.0
2019-Sep-06 06:00N 37°56' E 023°37'0 0.0
2019-Sep-06 05:30N 37°56' E 023°37'0 0.0
2019-Sep-06 05:00N 37°56' E 023°37'0 0.0
2019-Sep-06 04:30N 37°56' E 023°37'0 0.0
2019-Sep-06 04:00N 37°56' E 023°37'0 0.0
2019-Sep-06 03:29N 37°56' E 023°37'0 0.0
2019-Sep-06 02:59N 37°56' E 023°37'0 0.0
2019-Sep-06 02:30N 37°56' E 023°37'0 0.0
2019-Sep-06 02:01N 37°56' E 023°37'1 1.7
2019-Sep-06 01:31N 37°56' E 023°37'612.2
2019-Sep-06 01:01N 37°50' E 023°40'815.8
2019-Sep-06 00:31N 37°43' E 023°44'815.7
2019-Sep-06 00:01N 37°36' E 023°47'815.8
2019-Sep-05 23:31N 37°28' E 023°51'815.7
2019-Sep-05 23:01N 37°21' E 023°55'  
Track history (hours):
 
Tides and Currents Weather Stations Pressure Air Temp Water Temp Dewpoint Dewpoint Depression Visibility Wind Speed Wind Dir Waves Ship Positions

Celebrity Mercury

Last reported at 2019-Sep-15 20:00 UTC. Time now 2019-Sep-17 08:29 UTC.
Position N 36°18' E 013°54'.

Length 264 m; draft 8.5 m.

Type: Passenger vessel. MMSI: 249053000.

Wind from 290 at 5 knots

Barometer 1022.0 mb
Air temperature 25.0 ° C
Visibility: greater than 5.4 NM
Water temperature 30.0 ° C

Date/timePositionNaut miles runAvg speedWind from/ knotsBaromVisibWave heightAir tempDewpointWater temp
2019-Sep-15 20:00N 36°18' E 013°54'14011.7 290 / 51022.0 5.4 25.0 30.0
2019-Sep-15 08:00N 38°00' E 011°54'12613.6 120 / 111024.010.8 26.0 29.0
2019-Sep-14 22:44N 39°46' E 013°20'413.9
2019-Sep-14 22:29N 39°49' E 013°23'713.9
2019-Sep-14 22:01N 39°55' E 013°28'713.8
2019-Sep-14 21:30N 40°00' E 013°33'713.8
2019-Sep-14 21:00N 40°06' E 013°38'2103.8
2019-Sep-14 21:00N 40°06' E 013°36'816.3 350 / 111024.0 5.4 25.0 29.0
2019-Sep-14 20:30N 40°12' E 013°43'713.7
2019-Sep-14 20:01N 40°17' E 013°49'813.6
2019-Sep-14 19:26N 40°23' E 013°55'613.6
2019-Sep-14 19:00N 40°28' E 013°59'713.7
2019-Sep-14 18:31N 40°34' E 014°04'713.8
2019-Sep-14 18:00N 40°39' E 014°09'713.6
2019-Sep-14 17:30N 40°45' E 014°15'510.7
2019-Sep-14 17:00N 40°50' E 014°17'1 1.4
2019-Sep-14 16:30N 40°50' E 014°16'0 0.0
2019-Sep-14 16:00N 40°50' E 014°16'0 0.0
2019-Sep-14 15:30N 40°50' E 014°16'0 0.0
2019-Sep-14 15:00N 40°50' E 014°16'0 0.0
2019-Sep-14 14:30N 40°50' E 014°16'0 0.0
2019-Sep-14 13:54N 40°50' E 014°16'0 0.0
2019-Sep-14 13:24N 40°50' E 014°16'0 0.1
2019-Sep-14 13:00N 40°50' E 014°16'0 0.0
2019-Sep-14 12:30N 40°50' E 014°16'0 0.0
2019-Sep-14 12:00N 40°50' E 014°16'0 0.0
2019-Sep-14 11:30N 40°50' E 014°16'0 0.0
2019-Sep-14 11:00N 40°50' E 014°16'0 0.0
2019-Sep-14 10:30N 40°50' E 014°16'0 0.0
2019-Sep-14 10:00N 40°50' E 014°16'0 0.0
2019-Sep-14 09:24N 40°50' E 014°16'0 0.0
2019-Sep-14 09:00N 40°50' E 014°16'0 0.0
2019-Sep-14 08:30N 40°50' E 014°16'0 0.0
2019-Sep-14 08:00N 40°50' E 014°16'0 0.0
2019-Sep-14 07:30N 40°50' E 014°16'0 0.0
2019-Sep-14 07:00N 40°50' E 014°16'0 0.0
2019-Sep-14 06:30N 40°50' E 014°16'0 0.0
2019-Sep-14 06:00N 40°50' E 014°16'0 0.4
2019-Sep-14 05:30N 40°50' E 014°16'2 4.1
2019-Sep-14 05:00N 40°48' E 014°17'612.1
2019-Sep-14 04:31N 40°44' E 014°12'612.2
2019-Sep-14 04:01N 40°39' E 014°07'611.9
2019-Sep-14 03:31N 40°38' E 013°59'612.7
2019-Sep-14 03:01N 40°38' E 013°51'713.1
2019-Sep-14 02:30N 40°39' E 013°42'713.2
2019-Sep-14 02:01N 40°40' E 013°34'713.1
2019-Sep-14 01:30N 40°42' E 013°26'713.1
2019-Sep-14 01:01N 40°44' E 013°17'713.4
2019-Sep-14 00:31N 40°46' E 013°09'914.7
2019-Sep-13 23:53N 40°48' E 012°57'718.9
2019-Sep-13 23:30N 40°50' E 012°48'1318.3
2019-Sep-13 22:49N 40°58' E 012°35'618.9
2019-Sep-13 22:30N 41°03' E 012°30'918.8
2019-Sep-13 22:00N 41°09' E 012°21'1219.0
2019-Sep-13 21:22N 41°20' E 012°13'1118.7
2019-Sep-13 20:46N 41°28' E 012°04'718.8
2019-Sep-13 20:25N 41°33' E 011°58'818.9
2019-Sep-13 20:00N 41°40' E 011°52'1418.5
2019-Sep-13 19:16N 41°51' E 011°41'44 2.3
2019-Sep-13 00:00N 41°46' E 010°42'2118.6
2019-Sep-12 22:54N 41°39' E 010°16'718.4
2019-Sep-12 22:30N 41°36' E 010°07'918.4
2019-Sep-12 22:00N 41°32' E 009°56'918.6
2019-Sep-12 21:30N 41°29' E 009°45'1018.4
2019-Sep-12 20:58N 41°25' E 009°32'1117.7
2019-Sep-12 20:20N 41°20' E 009°19'1116.5
2019-Sep-12 19:40N 41°17' E 009°05'317.4
2019-Sep-12 19:30N 41°17' E 009°01'1117.7
2019-Sep-12 18:53N 41°10' E 008°50'718.2
2019-Sep-12 18:30N 41°06' E 008°43'918.1
2019-Sep-12 18:00N 40°60' E 008°34'917.6
2019-Sep-12 17:30N 40°54' E 008°26'4 7.6
2019-Sep-12 17:01N 40°51' E 008°23'0 0.0
2019-Sep-12 11:52N 40°51' E 008°23'0 0.0
2019-Sep-12 11:28N 40°51' E 008°23'0 0.0
2019-Sep-12 10:58N 40°51' E 008°23'0 0.0
2019-Sep-12 10:28N 40°51' E 008°23'0 0.0
2019-Sep-12 09:58N 40°51' E 008°23'0 0.0
2019-Sep-12 08:22N 40°51' E 008°23'0 0.0
2019-Sep-12 07:52N 40°51' E 008°23'0 0.0
2019-Sep-12 07:28N 40°51' E 008°23'0 0.0
2019-Sep-12 06:55N 40°51' E 008°23'0 0.0
2019-Sep-12 06:28N 40°51' E 008°23'0 0.0
2019-Sep-12 05:58N 40°51' E 008°23'0 0.3
2019-Sep-12 05:30N 40°51' E 008°23'9 6.4
2019-Sep-12 04:06N 40°60' E 008°25'1 8.4
2019-Sep-12 04:00N 41°00' E 008°25'4 8.3
2019-Sep-12 03:30N 41°04' E 008°26'4 8.2
2019-Sep-12 03:00N 41°09' E 008°26'4 8.3
2019-Sep-12 02:30N 41°13' E 008°26'4 8.2
2019-Sep-12 02:00N 41°17' E 008°25'7 8.2
2019-Sep-12 01:13N 41°23' E 008°24'2 8.2
2019-Sep-12 00:59N 41°25' E 008°23'4 8.3
2019-Sep-12 00:30N 41°29' E 008°23'5 8.2
2019-Sep-11 23:56N 41°34' E 008°22'4 8.3
2019-Sep-11 23:30N 41°37' E 008°21'4 8.2
2019-Sep-11 23:00N 41°41' E 008°21'4 7.5
2019-Sep-11 22:30N 41°44' E 008°23'4 8.2
2019-Sep-11 22:00N 41°46' E 008°28'4 8.2
2019-Sep-11 21:30N 41°49' E 008°33'4 8.1
2019-Sep-11 21:00N 41°50' E 008°38'12 0.7
2019-Sep-11 03:44N 41°38' E 008°39'513.6
2019-Sep-11 03:24N 41°34' E 008°42'25012.9
2019-Sep-10 08:00N 38°00' E 011°30'197 5.4 140 / 91014.010.8 25.0 29.0
2019-Sep-08 19:15N 37°00' E 015°27'617.0
2019-Sep-08 18:55N 37°06' E 015°25'1216.9
2019-Sep-08 18:13N 37°16' E 015°19'10 0.7
2019-Sep-08 04:13N 37°27' E 015°19'313.2
2019-Sep-08 04:00N 37°26' E 015°22'713.6
2019-Sep-08 03:31N 37°25' E 015°30'713.1
2019-Sep-08 03:00N 37°23' E 015°38'612.8
2019-Sep-08 02:31N 37°22' E 015°46'612.7
2019-Sep-08 02:01N 37°21' E 015°54'612.6
2019-Sep-08 01:30N 37°20' E 016°02'1412.7
2019-Sep-08 00:24N 37°17' E 016°19'712.8
2019-Sep-07 23:52N 37°16' E 016°27'34012.3
2019-Sep-06 20:15N 37°07' E 023°35'312.5
2019-Sep-06 20:00N 37°10' E 023°35'5336.5
2019-Sep-06 20:00N 37°06' E 023°30'1122.8 040 / 101014.010.8 26.0 29.0
2019-Sep-06 19:30N 37°16' E 023°37'612.4
2019-Sep-06 19:01N 37°21' E 023°40'713.1
2019-Sep-06 18:30N 37°28' E 023°41'713.3
2019-Sep-06 18:00N 37°34' E 023°42'713.1
2019-Sep-06 17:30N 37°41' E 023°41'713.2
2019-Sep-06 17:00N 37°47' E 023°38'611.7
2019-Sep-06 16:31N 37°53' E 023°37'4 7.2
2019-Sep-06 16:01N 37°56' E 023°37'0 0.1
2019-Sep-06 15:30N 37°56' E 023°37'0 0.0
2019-Sep-06 15:00N 37°56' E 023°37'0 0.0
2019-Sep-06 14:30N 37°56' E 023°37'0 0.0
2019-Sep-06 13:59N 37°56' E 023°37'0 0.0
2019-Sep-06 13:29N 37°56' E 023°37'0 0.0
2019-Sep-06 13:00N 37°56' E 023°37'0 0.0
2019-Sep-06 12:30N 37°56' E 023°37'0 0.0
2019-Sep-06 11:54N 37°56' E 023°37'0 0.0
2019-Sep-06 11:30N 37°56' E 023°37'0 0.0
2019-Sep-06 11:00N 37°56' E 023°37'0 0.0
2019-Sep-06 10:30N 37°56' E 023°37'0 0.0
2019-Sep-06 10:00N 37°56' E 023°37'0 0.0
2019-Sep-06 09:30N 37°56' E 023°37'0 0.0
2019-Sep-06 09:00N 37°56' E 023°37'0 0.0
2019-Sep-06 08:29N 37°56' E 023°37'0 0.0
2019-Sep-06 07:59N 37°56' E 023°37'0 0.0
2019-Sep-06 07:29N 37°56' E 023°37'0 0.0
2019-Sep-06 06:59N 37°56' E 023°37'0 0.0
2019-Sep-06 06:30N 37°56' E 023°37'0 0.0
2019-Sep-06 06:00N 37°56' E 023°37'0 0.0
2019-Sep-06 05:30N 37°56' E 023°37'0 0.0
2019-Sep-06 05:00N 37°56' E 023°37'0 0.0
2019-Sep-06 04:30N 37°56' E 023°37'0 0.0
2019-Sep-06 04:00N 37°56' E 023°37'0 0.0
2019-Sep-06 03:29N 37°56' E 023°37'0 0.0
2019-Sep-06 02:59N 37°56' E 023°37'0 0.0
2019-Sep-06 02:30N 37°56' E 023°37'0 0.0
2019-Sep-06 02:01N 37°56' E 023°37'1 1.7
2019-Sep-06 01:31N 37°56' E 023°37'612.2
2019-Sep-06 01:01N 37°50' E 023°40'815.8
2019-Sep-06 00:31N 37°43' E 023°44'815.7
2019-Sep-06 00:01N 37°36' E 023°47'815.8
2019-Sep-05 23:31N 37°28' E 023°51'815.7
2019-Sep-05 23:01N 37°21' E 023°55'  

Dump ship's entire track history